Time;durP1;ratioP1;P1;durP2;ratioP2;P2;SDS_P1;SDS_P2;PMS_P1;PMS_P2;Temp;Humidity;BMP_temperature;BMP_pressure;BME280_temperature;BME280_humidity;BME280_pressure;Samples;Min_cycle;Max_cycle;Signal;HPM_P1;HPM_P2
2024/01/10 00:00:28;;;;;;;;;;;;;;;-7.02;100.00;96336.38;10557304;28;2076;-65
2024/01/10 00:05:36;;;;;;;;;;;;;;;-6.97;100.00;96341.16;10557345;27;2484;-64
2024/01/10 00:10:39;;;;;;;;;;;;;;;-6.85;100.00;96326.88;10554523;27;1948;-63
2024/01/10 00:15:42;;;;;;;;;;;;;;;-6.83;100.00;96333.59;10560280;28;1940;-64
2024/01/10 00:20:45;;;;;;;;;;;;;;;-6.78;100.00;96338.38;10550333;28;1947;-65
2024/01/10 00:25:47;;;;;;;;;;;;;;;-6.66;100.00;96329.31;10554377;28;2041;-64
2024/01/10 00:30:52;;;;;;;;;;;;;;;-6.44;100.00;96337.59;10543772;28;2126;-65
2024/01/10 00:35:55;;;;;;;;;;;;;;;-6.26;100.00;96335.75;10547909;28;1990;-65
2024/01/10 00:40:58;;;;;;;;;;;;;;;-6.11;100.00;96338.59;10548811;28;1913;-63
2024/01/10 00:46:01;;;;;;;;;;;;;;;-6.01;100.00;96334.09;10555743;28;2117;-66
2024/01/10 00:51:08;;;;;;;;;;;;;;;-5.89;100.00;96335.41;10552125;28;1980;-66
2024/01/10 00:56:11;;;;;;;;;;;;;;;-5.78;100.00;96336.94;10555312;27;2550;-65
2024/01/10 01:01:14;;;;;;;;;;;;;;;-5.84;100.00;96335.75;10557841;28;2187;-66
2024/01/10 01:06:17;;;;;;;;;;;;;;;-5.76;100.00;96337.59;10546843;28;2041;-64
2024/01/10 01:11:20;;;;;;;;;;;;;;;-5.94;100.00;96334.28;10559503;28;1900;-67
2024/01/10 01:16:22;;;;;;;;;;;;;;;-5.85;100.00;96344.59;10548939;28;1974;-65
2024/01/10 01:21:25;;;;;;;;;;;;;;;-5.75;100.00;96349.69;10551360;28;1908;-65
2024/01/10 01:26:27;;;;;;;;;;;;;;;-5.95;100.00;96343.94;10557794;28;1952;-65
2024/01/10 01:31:30;;;;;;;;;;;;;;;-5.87;100.00;96350.97;10562015;27;2041;-65
2024/01/10 01:36:34;;;;;;;;;;;;;;;-5.83;100.00;96352.28;10554259;28;2160;-65
2024/01/10 01:41:36;;;;;;;;;;;;;;;-5.81;100.00;96351.16;10541026;28;2132;-64
2024/01/10 01:46:40;;;;;;;;;;;;;;;-5.72;100.00;96365.09;10549918;28;1934;-65
2024/01/10 01:51:42;;;;;;;;;;;;;;;-5.74;100.00;96370.47;10559402;28;2649;-65
2024/01/10 01:56:44;;;;;;;;;;;;;;;-5.71;100.00;96371.97;10559566;28;1982;-76
2024/01/10 02:01:47;;;;;;;;;;;;;;;-5.73;100.00;96372.13;10559599;28;2097;-74
2024/01/10 02:06:50;;;;;;;;;;;;;;;-5.73;100.00;96364.25;10552131;27;2015;-76
2024/01/10 02:11:53;;;;;;;;;;;;;;;-5.74;100.00;96361.81;10554784;27;2150;-66
2024/01/10 02:16:56;;;;;;;;;;;;;;;-5.68;100.00;96361.19;10559776;28;1936;-67
2024/01/10 02:21:59;;;;;;;;;;;;;;;-5.75;100.00;96362.78;10556507;28;2061;-67
2024/01/10 02:27:01;;;;;;;;;;;;;;;-5.76;100.00;96361.16;10556660;28;2133;-66
2024/01/10 02:32:04;;;;;;;;;;;;;;;-5.81;100.00;96371.28;10562357;27;1931;-65
2024/01/10 02:37:08;;;;;;;;;;;;;;;-5.85;100.00;96372.56;10561218;27;2347;-66
2024/01/10 02:42:11;;;;;;;;;;;;;;;-5.82;100.00;96369.63;10544722;28;2068;-66
2024/01/10 02:47:15;;;;;;;;;;;;;;;-5.83;100.00;96373.25;10558920;28;1933;-64
2024/01/10 02:52:19;;;;;;;;;;;;;;;-5.94;100.00;96376.16;10561910;28;2002;-66
2024/01/10 02:57:23;;;;;;;;;;;;;;;-5.92;100.00;96364.53;10559091;28;3260;-70
2024/01/10 03:02:26;;;;;;;;;;;;;;;-6.02;100.00;96362.06;10551618;28;1970;-68
2024/01/10 03:07:28;;;;;;;;;;;;;;;-5.87;100.00;96356.19;10561188;27;1991;-66
2024/01/10 03:12:31;;;;;;;;;;;;;;;-5.81;100.00;96352.94;10553416;28;2148;-65
2024/01/10 03:17:35;;;;;;;;;;;;;;;-5.77;100.00;96355.09;10557318;28;2082;-66
2024/01/10 03:22:38;;;;;;;;;;;;;;;-5.70;100.00;96352.66;10551703;27;2195;-67
2024/01/10 03:27:41;;;;;;;;;;;;;;;-5.54;100.00;96357.94;10561995;28;2326;-65
2024/01/10 03:32:43;;;;;;;;;;;;;;;-5.51;100.00;96356.81;10545683;28;2024;-65
2024/01/10 03:37:46;;;;;;;;;;;;;;;-5.60;100.00;96348.09;10556222;27;2939;-66
2024/01/10 03:42:49;;;;;;;;;;;;;;;-5.56;100.00;96333.72;10562681;28;2022;-66
2024/01/10 03:47:52;;;;;;;;;;;;;;;-5.48;100.00;96341.59;10556250;28;2056;-64
2024/01/10 03:52:55;;;;;;;;;;;;;;;-5.48;100.00;96336.34;10537469;28;1898;-67
2024/01/10 03:57:57;;;;;;;;;;;;;;;-5.41;100.00;96333.91;10557948;27;1990;-65
2024/01/10 04:03:00;;;;;;;;;;;;;;;-5.36;100.00;96328.19;10554307;28;2143;-66
2024/01/10 04:08:03;;;;;;;;;;;;;;;-5.51;100.00;96330.63;10550242;28;1943;-65
2024/01/10 04:13:06;;;;;;;;;;;;;;;-5.43;100.00;96322.78;10556708;28;1886;-64
2024/01/10 04:18:09;;;;;;;;;;;;;;;-5.43;100.00;96323.59;10548205;28;1980;-64
2024/01/10 04:23:16;;;;;;;;;;;;;;;-5.50;100.00;96327.03;10551497;28;1936;-65
2024/01/10 04:28:18;;;;;;;;;;;;;;;-5.45;100.00;96332.59;10549593;28;2030;-65
2024/01/10 04:33:21;;;;;;;;;;;;;;;-5.48;100.00;96325.88;10544677;28;1970;-65
2024/01/10 04:38:26;;;;;;;;;;;;;;;-5.66;100.00;96322.56;10554304;28;1934;-64
2024/01/10 04:43:29;;;;;;;;;;;;;;;-5.60;100.00;96332.38;10554883;28;2123;-68
2024/01/10 04:48:32;;;;;;;;;;;;;;;-5.41;100.00;96325.22;10521754;28;1900;-66
2024/01/10 04:53:37;;;;;;;;;;;;;;;-5.43;100.00;96325.41;10552727;28;1932;-64
2024/01/10 04:58:40;;;;;;;;;;;;;;;-5.34;100.00;96329.69;10556164;28;1986;-64
2024/01/10 05:03:45;;;;;;;;;;;;;;;-5.35;100.00;96332.44;10556584;28;1954;-64
2024/01/10 05:08:48;;;;;;;;;;;;;;;-5.37;100.00;96337.03;10549205;28;2198;-65
2024/01/10 05:13:50;;;;;;;;;;;;;;;-5.48;100.00;96330.28;10552081;28;2127;-65
2024/01/10 05:18:53;;;;;;;;;;;;;;;-5.61;100.00;96330.75;10549864;28;2069;-64
2024/01/10 05:23:56;;;;;;;;;;;;;;;-5.49;100.00;96339.94;10553502;28;2108;-65
2024/01/10 05:29:00;;;;;;;;;;;;;;;-5.35;100.00;96335.88;10553849;28;1899;-65
2024/01/10 05:34:04;;;;;;;;;;;;;;;-5.46;100.00;96350.13;10546388;28;2378;-65
2024/01/10 05:39:07;;;;;;;;;;;;;;;-5.49;100.00;96342.56;10543239;28;2067;-64
2024/01/10 05:44:09;;;;;;;;;;;;;;;-5.43;100.00;96347.19;10550044;28;1878;-66
2024/01/10 05:49:12;;;;;;;;;;;;;;;-5.35;100.00;96350.78;10548478;28;1979;-65
2024/01/10 05:54:15;;;;;;;;;;;;;;;-5.58;100.00;96348.78;10550562;28;2059;-65
2024/01/10 05:59:18;;;;;;;;;;;;;;;-5.97;100.00;96360.78;10545872;28;2006;-64
2024/01/10 06:04:23;;;;;;;;;;;;;;;-6.10;100.00;96366.44;10552836;28;2135;-65
2024/01/10 06:09:26;;;;;;;;;;;;;;;-6.35;100.00;96371.53;10550740;28;2184;-64
2024/01/10 06:14:31;;;;;;;;;;;;;;;-6.40;100.00;96372.97;10556144;28;2057;-65
2024/01/10 06:19:34;;;;;;;;;;;;;;;-6.41;100.00;96368.72;10560454;27;1989;-64
2024/01/10 06:24:37;;;;;;;;;;;;;;;-6.46;100.00;96369.16;10557859;28;2315;-65
2024/01/10 06:29:40;;;;;;;;;;;;;;;-6.55;100.00;96370.91;10561771;28;2049;-63
2024/01/10 06:34:43;;;;;;;;;;;;;;;-6.45;100.00;96372.59;10555462;28;2056;-65
2024/01/10 06:39:46;;;;;;;;;;;;;;;-6.46;100.00;96376.19;10556524;27;2084;-65
2024/01/10 06:44:49;;;;;;;;;;;;;;;-6.44;100.00;96369.81;10557417;28;2044;-65
2024/01/10 06:49:51;;;;;;;;;;;;;;;-6.40;100.00;96376.41;10559614;27;1907;-64
2024/01/10 06:54:54;;;;;;;;;;;;;;;-6.50;100.00;96375.66;10554553;28;2084;-64
2024/01/10 06:59:59;;;;;;;;;;;;;;;-6.60;100.00;96375.78;10561895;28;1884;-69
2024/01/10 07:05:02;;;;;;;;;;;;;;;-6.59;100.00;96382.63;10559578;28;2057;-70
2024/01/10 07:10:06;;;;;;;;;;;;;;;-6.68;100.00;96385.31;10565435;27;1898;-65
2024/01/10 07:15:09;;;;;;;;;;;;;;;-6.77;100.00;96384.44;10564367;28;2324;-65
2024/01/10 07:20:12;;;;;;;;;;;;;;;-6.78;100.00;96395.88;10564634;28;2263;-69
2024/01/10 07:25:25;;;;;;;;;;;;;;;-6.78;100.00;96403.72;10559977;28;2379;-67
2024/01/10 07:35:52;;;;;;;;;;;;;;;-6.77;100.00;96413.22;10560848;27;2050;-65
2024/01/10 07:40:59;;;;;;;;;;;;;;;-6.74;100.00;96419.91;10549028;28;2009;-67
2024/01/10 07:46:15;;;;;;;;;;;;;;;-6.72;100.00;96424.03;10557446;28;2101;-67
2024/01/10 07:51:19;;;;;;;;;;;;;;;-6.69;100.00;96423.72;10555039;28;2045;-69
2024/01/10 07:56:26;;;;;;;;;;;;;;;-6.50;100.00;96421.91;10540117;28;1962;-66
2024/01/10 08:01:30;;;;;;;;;;;;;;;-6.45;100.00;96423.09;10553089;28;2021;-67
2024/01/10 08:06:33;;;;;;;;;;;;;;;-6.59;100.00;96427.09;10554920;28;2203;-66
2024/01/10 08:11:36;;;;;;;;;;;;;;;-6.54;100.00;96435.31;10550958;27;2101;-67
2024/01/10 08:16:38;;;;;;;;;;;;;;;-6.46;100.00;96433.72;10555124;28;2241;-68
2024/01/10 08:21:41;;;;;;;;;;;;;;;-6.72;100.00;96434.50;10555719;28;1906;-66
2024/01/10 08:26:51;;;;;;;;;;;;;;;-6.57;100.00;96440.81;10547348;27;2029;-72
2024/01/10 08:31:54;;;;;;;;;;;;;;;-6.43;100.00;96436.03;10556369;28;2094;-72
2024/01/10 08:36:57;;;;;;;;;;;;;;;-6.48;100.00;96435.69;10565993;27;1944;-71
2024/01/10 08:42:01;;;;;;;;;;;;;;;-6.41;100.00;96441.94;10556782;28;2125;-73
2024/01/10 08:47:04;;;;;;;;;;;;;;;-6.49;100.00;96434.03;10560522;28;2071;-74
2024/01/10 08:52:09;;;;;;;;;;;;;;;-6.61;100.00;96442.13;10553594;28;1945;-72
2024/01/10 08:57:12;;;;;;;;;;;;;;;-6.43;100.00;96438.66;10557673;28;3139;-77
2024/01/10 09:02:14;;;;;;;;;;;;;;;-6.53;100.00;96439.56;10554659;28;2088;-72
2024/01/10 09:07:17;;;;;;;;;;;;;;;-6.32;100.00;96446.25;10558153;28;2069;-78
2024/01/10 09:12:20;;;;;;;;;;;;;;;-6.06;100.00;96454.13;10561596;28;1891;-76
2024/01/10 09:17:25;;;;;;;;;;;;;;;-6.36;100.00;96466.69;10541520;28;2159;-77
2024/01/10 09:22:30;;;;;;;;;;;;;;;-6.49;100.00;96468.03;10549707;28;1947;-71
2024/01/10 09:27:34;;;;;;;;;;;;;;;-6.36;100.00;96471.91;10537109;28;1938;-72
2024/01/10 09:32:37;;;;;;;;;;;;;;;-6.08;100.00;96459.53;10554162;28;1946;-68
2024/01/10 09:37:41;;;;;;;;;;;;;;;-5.77;100.00;96466.88;10545387;28;3037;-70
2024/01/10 09:42:44;;;;;;;;;;;;;;;-5.31;100.00;96459.56;10543429;28;2039;-68
2024/01/10 09:47:47;;;;;;;;;;;;;;;-5.45;100.00;96459.19;10549189;28;2100;-69
2024/01/10 09:52:50;;;;;;;;;;;;;;;-4.85;100.00;96467.88;10558617;28;1947;-67
2024/01/10 09:57:52;;;;;;;;;;;;;;;-4.78;100.00;96468.88;10559112;28;1984;-69
2024/01/10 10:02:55;;;;;;;;;;;;;;;-4.85;100.00;96462.63;10559728;28;2038;-70
2024/01/10 10:07:58;;;;;;;;;;;;;;;-5.06;100.00;96456.03;10550398;28;2138;-68
2024/01/10 10:13:02;;;;;;;;;;;;;;;-5.00;100.00;96460.66;10561422;28;2104;-70
2024/01/10 10:18:05;;;;;;;;;;;;;;;-4.92;100.00;96455.41;10541296;28;1980;-70
2024/01/10 10:23:10;;;;;;;;;;;;;;;-5.04;100.00;96458.50;10562016;28;2816;-70
2024/01/10 10:28:13;;;;;;;;;;;;;;;-4.99;100.00;96457.03;10557217;28;2333;-69
2024/01/10 10:33:31;;;;;;;;;;;;;;;-4.97;100.00;96465.56;10554965;28;2115;-68
2024/01/10 10:38:34;;;;;;;;;;;;;;;-5.04;100.00;96464.56;10552668;28;2265;-69
2024/01/10 10:43:37;;;;;;;;;;;;;;;-5.01;100.00;96466.06;10557521;28;1987;-70
2024/01/10 10:48:40;;;;;;;;;;;;;;;-4.83;100.00;96466.75;10547983;28;1952;-68
2024/01/10 10:53:45;;;;;;;;;;;;;;;-5.13;100.00;96465.53;10533021;28;2092;-73
2024/01/10 10:58:48;;;;;;;;;;;;;;;-5.03;100.00;96466.19;10548212;28;2010;-70
2024/01/10 11:03:51;;;;;;;;;;;;;;;-4.97;100.00;96462.94;10558603;28;1930;-68
2024/01/10 11:08:54;;;;;;;;;;;;;;;-4.95;100.00;96461.00;10555662;27;1905;-69
2024/01/10 11:13:57;;;;;;;;;;;;;;;-5.40;100.00;96457.91;10550781;28;2132;-67
2024/01/10 11:19:00;;;;;;;;;;;;;;;-5.26;100.00;96458.09;10561960;27;2127;-66
2024/01/10 11:24:03;;;;;;;;;;;;;;;-5.53;100.00;96464.41;10535554;28;2287;-71
2024/01/10 11:29:08;;;;;;;;;;;;;;;-5.07;100.00;96475.38;10556221;27;1911;-67
2024/01/10 11:34:13;;;;;;;;;;;;;;;-4.61;100.00;96481.06;10533346;28;1995;-66
2024/01/10 11:39:16;;;;;;;;;;;;;;;-5.11;100.00;96466.19;10555446;28;1979;-66
2024/01/10 11:44:21;;;;;;;;;;;;;;;-4.96;100.00;96471.66;10551205;28;2132;-65
2024/01/10 11:49:24;;;;;;;;;;;;;;;-5.16;100.00;96476.31;10534940;27;2118;-66
2024/01/10 11:54:27;;;;;;;;;;;;;;;-5.06;100.00;96469.16;10531808;28;1964;-66
2024/01/10 11:59:30;;;;;;;;;;;;;;;-4.83;100.00;96468.56;10552290;27;2423;-66
2024/01/10 12:04:34;;;;;;;;;;;;;;;-4.82;100.00;96470.19;10551533;28;1948;-63
2024/01/10 12:09:49;;;;;;;;;;;;;;;-4.45;100.00;96467.97;10537095;28;1919;-63
2024/01/10 12:14:52;;;;;;;;;;;;;;;-4.59;100.00;96471.19;10553923;28;1875;-64
2024/01/10 12:19:55;;;;;;;;;;;;;;;-4.45;100.00;96470.59;10554636;27;1958;-66
2024/01/10 12:24:58;;;;;;;;;;;;;;;-4.64;100.00;96471.72;10547719;28;2021;-66
2024/01/10 12:30:02;;;;;;;;;;;;;;;-4.17;100.00;96467.63;10557066;28;1873;-66
2024/01/10 12:35:05;;;;;;;;;;;;;;;-4.16;100.00;96466.63;10558799;28;1879;-65
2024/01/10 12:40:08;;;;;;;;;;;;;;;-3.77;100.00;96458.88;10549081;28;2089;-65
2024/01/10 12:45:12;;;;;;;;;;;;;;;-3.72;100.00;96445.25;10543892;28;1880;-64
2024/01/10 12:50:22;;;;;;;;;;;;;;;-3.93;100.00;96454.47;10550268;28;1922;-63
2024/01/10 12:55:25;;;;;;;;;;;;;;;-4.00;100.00;96453.50;10530223;28;2298;-64
2024/01/10 13:00:28;;;;;;;;;;;;;;;-3.79;100.00;96449.53;10545218;28;2133;-63
2024/01/10 13:05:32;;;;;;;;;;;;;;;-3.96;100.00;96444.28;10542004;28;1965;-64
2024/01/10 13:10:35;;;;;;;;;;;;;;;-3.67;100.00;96440.31;10552309;28;2072;-63
2024/01/10 13:15:38;;;;;;;;;;;;;;;-3.41;100.00;96438.25;10542958;28;1902;-64
2024/01/10 13:20:41;;;;;;;;;;;;;;;-3.88;100.00;96451.31;10557958;28;1978;-65
2024/01/10 13:25:44;;;;;;;;;;;;;;;-4.09;100.00;96446.59;10537751;28;2069;-67
2024/01/10 13:30:47;;;;;;;;;;;;;;;-3.95;100.00;96445.94;10556854;28;2100;-63
2024/01/10 13:35:50;;;;;;;;;;;;;;;-3.93;100.00;96451.84;10554921;28;1914;-63
2024/01/10 13:40:59;;;;;;;;;;;;;;;-4.54;100.00;96461.03;10557840;27;2562;-65
2024/01/10 13:46:03;;;;;;;;;;;;;;;-4.11;100.00;96466.97;10555899;27;2002;-62
2024/01/10 13:51:10;;;;;;;;;;;;;;;-4.18;100.00;96466.00;10556033;27;1882;-63
2024/01/10 13:56:13;;;;;;;;;;;;;;;-4.46;100.00;96463.66;10554621;28;2248;-64
2024/01/10 14:01:16;;;;;;;;;;;;;;;-4.15;100.00;96463.84;10557962;28;1990;-63
2024/01/10 14:06:19;;;;;;;;;;;;;;;-4.32;100.00;96474.53;10543475;27;2006;-64
2024/01/10 14:11:22;;;;;;;;;;;;;;;-4.27;100.00;96472.22;10564051;27;1895;-64
2024/01/10 14:16:27;;;;;;;;;;;;;;;-4.39;100.00;96475.19;10555185;28;2217;-66
2024/01/10 14:21:31;;;;;;;;;;;;;;;-4.60;100.00;96482.69;10556705;27;2013;-62
2024/01/10 14:26:35;;;;;;;;;;;;;;;-4.85;100.00;96481.00;10561227;28;2837;-64
2024/01/10 14:31:39;;;;;;;;;;;;;;;-4.83;100.00;96482.50;10552185;28;2009;-65
2024/01/10 14:37:04;;;;;;;;;;;;;;;-4.98;100.00;96484.91;10558966;27;1967;-65
2024/01/10 14:42:06;;;;;;;;;;;;;;;-4.95;100.00;96492.47;10561536;28;2033;-65
2024/01/10 14:47:09;;;;;;;;;;;;;;;-5.29;100.00;96494.28;10551017;28;2002;-63
2024/01/10 14:52:14;;;;;;;;;;;;;;;-5.27;100.00;96501.03;10557702;28;1985;-65
2024/01/10 14:57:17;;;;;;;;;;;;;;;-5.43;100.00;96504.38;10555925;28;2026;-66
2024/01/10 15:02:19;;;;;;;;;;;;;;;-5.31;100.00;96496.25;10555309;28;2060;-64
2024/01/10 15:07:22;;;;;;;;;;;;;;;-5.33;100.00;96500.84;10555914;28;2100;-67
2024/01/10 15:12:30;;;;;;;;;;;;;;;-5.25;100.00;96503.47;10539773;28;2690;-65
2024/01/10 15:17:33;;;;;;;;;;;;;;;-5.41;100.00;96509.44;10552403;27;1986;-64
2024/01/10 15:22:38;;;;;;;;;;;;;;;-5.53;100.00;96506.31;10551728;28;1979;-64
2024/01/10 15:27:41;;;;;;;;;;;;;;;-5.56;100.00;96501.38;10559057;28;2050;-64
2024/01/10 15:32:43;;;;;;;;;;;;;;;-5.64;100.00;96503.94;10552893;28;2037;-66
2024/01/10 15:37:47;;;;;;;;;;;;;;;-5.69;100.00;96518.47;10552447;28;2019;-65
2024/01/10 15:42:50;;;;;;;;;;;;;;;-5.56;100.00;96519.69;10553128;28;1889;-67
2024/01/10 15:47:52;;;;;;;;;;;;;;;-5.64;100.00;96509.19;10548128;28;2041;-65
2024/01/10 15:52:55;;;;;;;;;;;;;;;-5.62;100.00;96515.09;10557077;28;2780;-65
2024/01/10 15:57:57;;;;;;;;;;;;;;;-5.72;100.00;96514.38;10558185;28;1988;-66
2024/01/10 16:03:00;;;;;;;;;;;;;;;-5.88;100.00;96522.94;10549448;28;1993;-65
2024/01/10 16:08:03;;;;;;;;;;;;;;;-5.58;100.00;96521.66;10558883;28;1922;-66
2024/01/10 16:13:05;;;;;;;;;;;;;;;-5.64;100.00;96529.31;10534698;28;1942;-64
2024/01/10 16:18:08;;;;;;;;;;;;;;;-5.55;100.00;96523.13;10550444;28;1942;-64
2024/01/10 16:23:11;;;;;;;;;;;;;;;-5.43;100.00;96521.91;10554601;28;2037;-64
2024/01/10 16:28:13;;;;;;;;;;;;;;;-5.46;100.00;96523.03;10542537;27;2109;-70
2024/01/10 16:33:16;;;;;;;;;;;;;;;-5.40;100.00;96520.78;10552369;28;2105;-63
2024/01/10 16:38:19;;;;;;;;;;;;;;;-5.28;100.00;96524.75;10559231;28;2053;-66
2024/01/10 16:43:22;;;;;;;;;;;;;;;-5.14;100.00;96515.50;10565837;27;2949;-66
2024/01/10 16:48:24;;;;;;;;;;;;;;;-5.02;100.00;96509.81;10553520;28;1910;-64
2024/01/10 16:53:27;;;;;;;;;;;;;;;-5.03;100.00;96517.81;10549592;28;2285;-66
2024/01/10 16:58:30;;;;;;;;;;;;;;;-5.00;100.00;96517.50;10551872;28;2030;-66
2024/01/10 17:03:33;;;;;;;;;;;;;;;-4.96;100.00;96519.66;10555426;28;1888;-65
2024/01/10 17:08:35;;;;;;;;;;;;;;;-4.98;100.00;96521.59;10550711;28;1883;-65
2024/01/10 17:13:39;;;;;;;;;;;;;;;-5.12;100.00;96518.78;10551934;28;2249;-66
2024/01/10 17:18:44;;;;;;;;;;;;;;;-5.08;100.00;96520.94;10550710;28;1984;-66
2024/01/10 17:23:48;;;;;;;;;;;;;;;-4.86;100.00;96513.44;10540656;28;2991;-65
2024/01/10 17:28:52;;;;;;;;;;;;;;;-4.70;100.00;96518.75;10536714;28;1965;-66
2024/01/10 17:33:55;;;;;;;;;;;;;;;-4.52;100.00;96516.78;10546394;28;2107;-66
2024/01/10 17:38:58;;;;;;;;;;;;;;;-4.40;100.00;96512.88;10552290;28;2208;-68
2024/01/10 17:44:01;;;;;;;;;;;;;;;-4.57;100.00;96516.50;10566642;28;1979;-69
2024/01/10 17:49:04;;;;;;;;;;;;;;;-4.70;100.00;96518.75;10553829;28;2030;-67
2024/01/10 17:54:07;;;;;;;;;;;;;;;-4.51;100.00;96515.03;10547020;28;1995;-69
2024/01/10 17:59:09;;;;;;;;;;;;;;;-4.59;100.00;96521.06;10541701;28;2116;-75
2024/01/10 18:04:27;;;;;;;;;;;;;;;-4.58;100.00;96522.72;10545034;28;2023;-67
2024/01/10 18:09:29;;;;;;;;;;;;;;;-4.56;100.00;96525.19;10539559;28;2915;-65
2024/01/10 18:14:33;;;;;;;;;;;;;;;-4.47;100.00;96529.44;10561174;28;2064;-67
2024/01/10 18:19:37;;;;;;;;;;;;;;;-4.28;100.00;96517.81;10553931;28;2151;-65
2024/01/10 18:24:39;;;;;;;;;;;;;;;-4.50;100.00;96519.28;10558165;28;1962;-66
2024/01/10 18:29:41;;;;;;;;;;;;;;;-4.40;100.00;96526.00;10560108;28;2223;-64
2024/01/10 18:34:44;;;;;;;;;;;;;;;-4.12;100.00;96528.34;10559146;28;1904;-66
2024/01/10 18:39:47;;;;;;;;;;;;;;;-4.25;100.00;96528.00;10567158;28;2065;-68
2024/01/10 18:44:50;;;;;;;;;;;;;;;-4.45;100.00;96525.69;10567006;27;2122;-64
2024/01/10 18:49:53;;;;;;;;;;;;;;;-4.38;100.00;96529.31;10559063;28;2816;-73
2024/01/10 18:54:56;;;;;;;;;;;;;;;-4.30;100.00;96535.56;10558666;27;1934;-72
2024/01/10 18:59:59;;;;;;;;;;;;;;;-4.38;100.00;96531.13;10558475;27;2387;-74
2024/01/10 19:05:02;;;;;;;;;;;;;;;-4.37;100.00;96525.69;10556206;27;1922;-72
2024/01/10 19:10:05;;;;;;;;;;;;;;;-4.60;100.00;96519.41;10568047;27;1888;-66
2024/01/10 19:15:09;;;;;;;;;;;;;;;-4.84;100.00;96529.84;10555339;27;2030;-63
2024/01/10 19:20:12;;;;;;;;;;;;;;;-4.78;100.00;96530.03;10559248;28;1932;-66
2024/01/10 19:25:15;;;;;;;;;;;;;;;-4.82;100.00;96535.75;10557546;28;2053;-65
2024/01/10 19:30:21;;;;;;;;;;;;;;;-4.90;100.00;96545.25;10563516;28;2002;-66
2024/01/10 19:35:24;;;;;;;;;;;;;;;-4.96;100.00;96545.88;10562238;28;1921;-65
2024/01/10 19:40:27;;;;;;;;;;;;;;;-4.95;100.00;96542.28;10563618;28;2843;-65
2024/01/10 19:45:30;;;;;;;;;;;;;;;-5.16;100.00;96550.53;10554856;28;1976;-64
2024/01/10 19:50:33;;;;;;;;;;;;;;;-5.22;100.00;96548.56;10537500;28;1882;-66
2024/01/10 19:55:37;;;;;;;;;;;;;;;-5.25;100.00;96540.19;10544240;28;2005;-66
2024/01/10 20:00:40;;;;;;;;;;;;;;;-5.36;100.00;96543.88;10551262;28;2012;-66
2024/01/10 20:05:43;;;;;;;;;;;;;;;-5.21;100.00;96544.13;10558134;27;1908;-66
2024/01/10 20:10:46;;;;;;;;;;;;;;;-5.05;100.00;96538.94;10557769;28;2080;-64
2024/01/10 20:15:48;;;;;;;;;;;;;;;-4.86;100.00;96537.06;10554080;28;2009;-64
2024/01/10 20:20:51;;;;;;;;;;;;;;;-4.87;100.00;96540.66;10549215;28;1955;-65
2024/01/10 20:25:54;;;;;;;;;;;;;;;-4.83;100.00;96539.38;10553186;28;2136;-67
2024/01/10 20:30:56;;;;;;;;;;;;;;;-4.70;100.00;96542.38;10551530;28;2481;-66
2024/01/10 20:36:01;;;;;;;;;;;;;;;-4.59;100.00;96538.59;10557172;28;1939;-66
2024/01/10 20:41:03;;;;;;;;;;;;;;;-4.73;100.00;96537.41;10563551;28;1902;-65
2024/01/10 20:46:08;;;;;;;;;;;;;;;-5.03;100.00;96547.47;10567040;28;1476;-66
2024/01/10 20:51:11;;;;;;;;;;;;;;;-5.09;100.00;96550.75;10561880;27;1751;-70
2024/01/10 20:56:13;;;;;;;;;;;;;;;-5.24;100.00;96552.28;10564343;28;1901;-68
2024/01/10 21:01:17;;;;;;;;;;;;;;;-5.45;100.00;96543.03;10563194;28;1984;-70
2024/01/10 21:06:20;;;;;;;;;;;;;;;-5.44;100.00;96536.81;10561839;28;1734;-66
2024/01/10 21:11:23;;;;;;;;;;;;;;;-5.41;100.00;96540.06;10563471;28;2607;-65
2024/01/10 21:16:25;;;;;;;;;;;;;;;-5.37;100.00;96537.00;10562863;28;1527;-64
2024/01/10 21:21:28;;;;;;;;;;;;;;;-5.31;100.00;96538.19;10559887;28;1984;-65
2024/01/10 21:26:31;;;;;;;;;;;;;;;-5.45;100.00;96535.16;10560855;28;1439;-65
2024/01/10 21:31:34;;;;;;;;;;;;;;;-5.57;100.00;96531.16;10569905;28;1409;-65
2024/01/10 21:36:36;;;;;;;;;;;;;;;-5.39;100.00;96538.16;10567836;28;1526;-64
2024/01/10 21:41:39;;;;;;;;;;;;;;;-5.61;100.00;96534.22;10563282;28;1928;-67
2024/01/10 21:46:45;;;;;;;;;;;;;;;-5.62;100.00;96522.94;10563922;27;1740;-65
2024/01/10 21:51:48;;;;;;;;;;;;;;;-5.68;100.00;96525.34;10559895;27;2117;-66
2024/01/10 21:56:52;;;;;;;;;;;;;;;-5.71;100.00;96529.13;10560483;28;1917;-65
2024/01/10 22:01:55;;;;;;;;;;;;;;;-5.56;100.00;96526.75;10557255;27;2381;-65
2024/01/10 22:06:58;;;;;;;;;;;;;;;-5.61;100.00;96524.56;10543741;28;1969;-64
2024/01/10 22:12:01;;;;;;;;;;;;;;;-5.56;100.00;96516.25;10561637;27;2197;-65
2024/01/10 22:17:05;;;;;;;;;;;;;;;-5.36;100.00;96511.63;10557968;28;2068;-66
2024/01/10 22:22:09;;;;;;;;;;;;;;;-5.43;100.00;96512.25;10568333;27;2045;-65
2024/01/10 22:27:14;;;;;;;;;;;;;;;-5.33;100.00;96517.38;10540942;28;2061;-64
2024/01/10 22:32:17;;;;;;;;;;;;;;;-5.17;100.00;96517.44;10549692;27;2045;-65
2024/01/10 22:37:23;;;;;;;;;;;;;;;-5.47;100.00;96515.31;10550513;28;2088;-65
2024/01/10 22:42:26;;;;;;;;;;;;;;;-5.39;100.00;96509.31;10549976;27;2064;-64
2024/01/10 22:47:30;;;;;;;;;;;;;;;-5.30;100.00;96521.47;10558477;28;2388;-64
2024/01/10 22:52:32;;;;;;;;;;;;;;;-5.44;100.00;96526.31;10560115;27;2053;-66
2024/01/10 22:57:35;;;;;;;;;;;;;;;-5.23;100.00;96525.09;10553129;28;2245;-66
2024/01/10 23:02:37;;;;;;;;;;;;;;;-5.48;100.00;96527.59;10548999;27;1984;-65
2024/01/10 23:07:41;;;;;;;;;;;;;;;-5.50;100.00;96524.31;10551664;28;1852;-64
2024/01/10 23:12:43;;;;;;;;;;;;;;;-5.50;100.00;96507.78;10560956;28;1896;-65
2024/01/10 23:17:46;;;;;;;;;;;;;;;-5.81;100.00;96502.19;10536109;28;1924;-65
2024/01/10 23:22:49;;;;;;;;;;;;;;;-5.66;100.00;96511.16;10560143;28;2133;-68
2024/01/10 23:27:53;;;;;;;;;;;;;;;-5.63;100.00;96510.81;10570444;27;2297;-65
2024/01/10 23:32:57;;;;;;;;;;;;;;;-5.72;100.00;96502.09;10557517;28;2468;-64
2024/01/10 23:38:02;;;;;;;;;;;;;;;-5.65;100.00;96504.09;10554524;28;2041;-64
2024/01/10 23:43:04;;;;;;;;;;;;;;;-5.65;100.00;96497.06;10553226;28;1947;-64
2024/01/10 23:48:22;;;;;;;;;;;;;;;-5.88;100.00;96485.47;10549579;28;2026;-65
2024/01/10 23:53:25;;;;;;;;;;;;;;;-6.16;100.00;96497.91;10552499;28;2073;-66
2024/01/10 23:58:28;;;;;;;;;;;;;;;-5.98;100.00;96496.06;10556866;28;1911;-67
